Time;durP1;ratioP1;P1;durP2;ratioP2;P2;SDS_P1;SDS_P2;PMS_P1;PMS_P2;Temp;Humidity;BMP_temperature;BMP_pressure;BME280_temperature;BME280_humidity;BME280_pressure;Samples;Min_cycle;Max_cycle;Signal;HPM_P1;HPM_P2
2023/06/10 00:01:24;;;;;;;;;11.00;10.25;;;;;26.56;44.46;100480.69;6315776;22;46419;-72
2023/06/10 00:07:09;;;;;;;;;;;;;;;;;;;;;
2023/06/10 00:09:49;;;;;;;;;9.25;9.25;;;;;26.41;44.36;100472.19;6339166;22;72667;-71
2023/06/10 00:12:36;;;;;;;;;10.75;9.50;;;;;26.38;44.90;100472.50;6312116;22;47036;-72
2023/06/10 00:15:24;;;;;;;;;9.00;8.75;;;;;26.46;44.82;100480.78;6339563;22;45610;-71
2023/06/10 00:18:12;;;;;;;;;;;;;;;;;;;;;
2023/06/10 00:21:13;;;;;;;;;11.00;10.75;;;;;26.51;44.55;100494.84;6339131;22;71457;-71
2023/06/10 00:24:06;;;;;;;;;10.50;9.75;;;;;26.51;44.99;100502.19;6339926;22;45388;-71
2023/06/10 00:26:48;;;;;;;;;14.00;12.00;;;;;26.48;45.16;100497.94;6312261;22;45586;-72
2023/06/10 00:29:35;;;;;;;;;10.50;9.75;;;;;26.45;45.00;100503.72;6312195;22;45342;-71
2023/06/10 00:32:12;;;;;;;;;12.00;12.00;;;;;26.17;44.96;100464.66;6337789;22;45309;-71
2023/06/10 00:34:37;;;;;;;;;8.75;8.00;;;;;26.43;45.34;100513.97;6339925;22;46613;-71
2023/06/10 00:37:10;;;;;;;;;10.25;9.00;;;;;26.26;45.31;100499.25;6311129;22;45326;-71
2023/06/10 00:39:47;;;;;;;;;6.00;6.00;;;;;26.06;45.22;100472.09;6340079;22;45250;-71
2023/06/10 00:42:43;;;;;;;;;;;;;;;;;;;;;
2023/06/10 00:45:26;;;;;;;;;;;;;;;;;;;;;
2023/06/10 00:48:04;;;;;;;;;9.75;8.25;;;;;26.32;45.53;100517.78;6338681;22;73326;-71
2023/06/10 00:51:00;;;;;;;;;10.25;9.25;;;;;26.06;46.28;100480.31;6340542;22;45389;-71
2023/06/10 00:53:30;;;;;;;;;10.00;9.50;;;;;26.17;45.95;100497.50;6338790;22;45356;-71
2023/06/10 00:56:18;;;;;;;;;10.75;10.75;;;;;26.16;46.07;100493.91;6340484;22;45413;-72
2023/06/10 00:59:02;;;;;;;;;13.75;11.75;;;;;26.27;46.22;100516.56;6340366;22;45371;-71
2023/06/10 01:01:34;;;;;;;;;10.75;9.75;;;;;26.00;46.37;100485.53;6339621;22;45370;-71
2023/06/10 01:04:12;;;;;;;;;9.75;9.75;;;;;25.96;46.31;100476.78;6339398;22;45513;-72
2023/06/10 01:07:25;;;;;;;;;;;;;;;;;;;;;
2023/06/10 01:10:15;;;;;;;;;10.00;10.00;;;;;26.24;46.88;100515.88;6242152;22;73291;-72
2023/06/10 01:12:59;;;;;;;;;11.50;11.00;;;;;25.89;46.73;100473.78;6340336;22;45379;-72
2023/06/10 01:15:40;;;;;;;;;10.00;10.00;;;;;25.93;47.05;100484.38;6310626;22;45410;-72
2023/06/10 01:18:18;;;;;;;;;11.00;11.00;;;;;26.11;46.87;100520.88;6339927;22;46549;-72
2023/06/10 01:21:13;;;;;;;;;10.50;9.00;;;;;25.98;47.37;100504.00;6339891;22;45664;-72
2023/06/10 01:24:33;;;;;;;;;8.00;8.00;;;;;26.07;47.18;100516.72;6340124;22;45383;-72
2023/06/10 01:26:52;;;;;;;;;9.00;8.00;;;;;25.97;47.05;100502.25;6333474;22;45177;-72
2023/06/10 01:29:41;;;;;;;;;8.75;8.25;;;;;25.96;47.69;100517.81;6339913;22;45437;-72
2023/06/10 01:33:08;;;;;;;;;8.50;8.50;;;;;25.90;47.49;100507.44;6339019;22;45472;-72
2023/06/10 01:35:39;;;;;;;;;8.75;8.75;;;;;25.76;47.21;100495.19;6289280;22;45314;-72
2023/06/10 01:38:16;;;;;;;;;9.00;8.00;;;;;25.66;47.64;100480.69;6339663;22;45390;-72
2023/06/10 01:41:10;;;;;;;;;;;;;;;;;;;;;
2023/06/10 01:43:40;;;;;;;;;8.75;8.75;;;;;25.73;47.86;100511.91;6338806;22;71612;-71
2023/06/10 01:46:19;;;;;;;;;;;;;;;;;;;;;
2023/06/10 01:48:55;;;;;;;;;9.25;8.25;;;;;25.60;48.13;100501.31;6337602;22;71942;-72
2023/06/10 01:51:39;;;;;;;;;9.50;9.50;;;;;25.56;48.47;100499.03;6311502;22;46998;-71
2023/06/10 01:54:07;;;;;;;;;10.00;9.50;;;;;25.59;48.50;100518.72;6339891;22;45353;-72
2023/06/10 01:56:42;;;;;;;;;9.25;8.50;;;;;25.52;48.60;100512.16;6311616;22;45466;-71
2023/06/10 01:59:07;;;;;;;;;7.00;7.00;;;;;25.45;48.45;100511.06;6311633;22;45310;-72
2023/06/10 02:01:56;;;;;;;;;8.50;8.50;;;;;25.61;48.38;100534.97;6339212;22;45246;-72
2023/06/10 02:04:29;;;;;;;;;8.75;8.00;;;;;25.46;48.46;100513.63;6337559;22;45603;-71
2023/06/10 02:07:02;;;;;;;;;7.75;7.75;;;;;25.38;48.72;100508.06;6339805;22;45326;-72
2023/06/10 02:09:34;;;;;;;;;8.50;8.50;;;;;25.43;48.76;100519.41;6339745;22;45191;-72
2023/06/10 02:12:23;;;;;;;;;10.50;9.50;;;;;25.37;48.59;100505.47;6311506;22;46164;-72
2023/06/10 02:14:53;;;;;;;;;9.75;9.75;;;;;25.44;48.98;100515.66;6310813;22;45311;-72
2023/06/10 02:17:19;;;;;;;;;6.75;6.75;;;;;25.39;48.92;100512.50;6339658;22;45310;-71
2023/06/10 02:19:52;;;;;;;;;8.00;8.00;;;;;25.32;49.15;100514.97;6339574;22;45982;-72
2023/06/10 02:22:27;;;;;;;;;8.25;6.50;;;;;25.29;48.87;100508.97;6338652;22;45577;-72
2023/06/10 02:24:58;;;;;;;;;4.75;4.75;;;;;25.24;49.50;100505.78;6339655;22;45399;-72
2023/06/10 02:27:27;;;;;;;;;7.25;6.50;;;;;25.32;49.06;100520.44;6339699;22;45204;-72
2023/06/10 02:29:59;;;;;;;;;7.75;7.75;;;;;25.38;49.16;100534.53;6311359;22;45844;-72
2023/06/10 02:32:28;;;;;;;;;7.75;7.75;;;;;25.32;49.30;100530.50;6310646;22;45641;-72
2023/06/10 02:34:59;;;;;;;;;8.00;7.75;;;;;25.05;49.88;100490.34;6338879;22;45725;-72
2023/06/10 02:37:35;;;;;;;;;6.00;5.50;;;;;25.27;49.39;100527.38;6338718;22;45259;-71
2023/06/10 02:40:06;;;;;;;;;9.75;9.00;;;;;25.17;49.00;100511.00;6339023;22;45273;-72
2023/06/10 02:42:49;;;;;;;;;6.25;6.25;;;;;25.06;49.41;100497.53;6339444;22;46523;-72
2023/06/10 02:45:43;;;;;;;;;9.75;8.00;;;;;25.03;49.26;100498.69;6339551;22;45596;-72
2023/06/10 02:48:11;;;;;;;;;9.75;9.75;;;;;25.22;49.79;100529.66;6339169;22;46158;-71
2023/06/10 02:50:39;;;;;;;;;8.25;6.00;;;;;25.27;49.62;100549.22;6339497;22;45389;-72
2023/06/10 02:53:05;;;;;;;;;8.50;7.50;;;;;25.23;49.67;100539.59;6310487;22;47281;-71
2023/06/10 02:55:30;;;;;;;;;6.50;5.25;;;;;25.09;49.58;100527.25;6339196;22;45467;-72
2023/06/10 02:58:03;;;;;;;;;7.00;6.50;;;;;25.20;49.64;100545.34;6311059;22;45201;-71
2023/06/10 03:00:46;;;;;;;;;8.25;6.50;;;;;25.18;49.95;100542.78;6339618;22;45279;-72
2023/06/10 03:03:34;;;;;;;;;8.75;8.25;;;;;25.12;50.05;100546.94;6310682;22;47016;-72
2023/06/10 03:06:03;;;;;;;;;9.00;9.00;;;;;24.87;50.35;100512.09;6339362;22;45263;-72
2023/06/10 03:08:32;;;;;;;;;6.75;6.75;;;;;24.82;50.04;100506.25;6338908;22;45401;-72
2023/06/10 03:10:58;;;;;;;;;8.25;7.50;;;;;24.81;49.78;100504.50;6339084;22;45258;-72
2023/06/10 03:13:23;;;;;;;;;9.00;8.00;;;;;24.78;50.23;100501.06;6339344;22;47485;-72
2023/06/10 03:15:54;;;;;;;;;8.75;8.75;;;;;24.76;50.69;100508.56;6338815;22;45291;-72
2023/06/10 03:18:24;;;;;;;;;7.75;6.75;;;;;25.05;50.66;100567.66;6310396;22;45597;-72
2023/06/10 03:20:59;;;;;;;;;8.50;8.50;;;;;24.87;50.18;100537.53;6339345;22;45275;-72
2023/06/10 03:23:32;;;;;;;;;9.00;6.75;;;;;25.01;50.68;100560.78;6338839;22;45397;-72
2023/06/10 03:26:05;;;;;;;;;4.50;4.50;;;;;25.03;50.91;100566.97;6312406;22;45403;-72
2023/06/10 03:28:44;;;;;;;;;;;;;;;;;;;;;
2023/06/10 03:31:09;;;;;;;;;7.50;7.50;;;;;24.93;50.83;100553.34;6338985;22;72027;-72
2023/06/10 03:33:59;;;;;;;;;;;;;;;;;;;;;
2023/06/10 03:36:41;;;;;;;;;9.75;9.00;;;;;24.84;50.83;100542.44;6339479;22;72797;-72
2023/06/10 03:39:16;;;;;;;;;10.75;8.00;;;;;24.61;50.49;100510.03;6340402;22;45336;-72
2023/06/10 03:41:52;;;;;;;;;7.50;6.75;;;;;24.80;50.93;100551.94;6340200;22;45389;-72
2023/06/10 03:44:33;;;;;;;;;9.50;9.50;;;;;24.74;50.82;100556.97;6340075;22;45732;-72
2023/06/10 03:47:04;;;;;;;;;8.50;8.50;;;;;24.69;50.68;100548.38;6340424;22;45423;-72
2023/06/10 03:49:35;;;;;;;;;7.75;7.00;;;;;24.72;50.95;100567.16;6340190;22;45359;-72
2023/06/10 03:52:02;;;;;;;;;7.00;7.00;;;;;24.69;50.78;100570.19;6340418;22;45474;-72
2023/06/10 03:54:34;;;;;;;;;8.00;8.00;;;;;24.65;51.25;100554.25;6340341;22;46398;-72
2023/06/10 03:57:26;;;;;;;;;6.50;6.00;;;;;24.67;51.54;100574.91;6311882;22;45430;-72
2023/06/10 03:59:57;;;;;;;;;7.25;7.25;;;;;24.54;50.81;100557.94;6340563;22;45370;-72
2023/06/10 04:02:32;;;;;;;;;8.75;8.75;;;;;24.35;51.05;100537.00;6340142;22;45614;-72
2023/06/10 04:05:07;;;;;;;;;6.50;6.00;;;;;24.12;51.36;100512.75;6311709;22;47149;-71
2023/06/10 04:07:42;;;;;;;;;6.75;6.00;;;;;24.27;51.13;100551.34;6339934;22;45518;-72
2023/06/10 04:10:25;;;;;;;;;7.25;6.25;;;;;24.36;51.31;100575.06;6340604;22;45420;-72
2023/06/10 04:12:53;;;;;;;;;5.25;5.25;;;;;24.24;51.77;100559.84;6340744;22;45251;-72
2023/06/10 04:15:19;;;;;;;;;8.50;8.50;;;;;24.16;52.05;100543.34;6340158;22;45510;-72
2023/06/10 04:17:46;;;;;;;;;8.00;7.00;;;;;24.28;51.63;100577.63;6339026;22;45401;-71
2023/06/10 04:20:22;;;;;;;;;7.50;7.50;;;;;24.32;52.15;100584.50;6340524;22;45303;-72
2023/06/10 04:22:50;;;;;;;;;6.25;6.25;;;;;24.03;51.91;100539.00;6340379;22;45169;-72
2023/06/10 04:25:38;;;;;;;;;9.50;6.50;;;;;23.92;51.66;100533.69;6340423;22;45593;-72
2023/06/10 04:28:05;;;;;;;;;7.00;7.00;;;;;24.21;52.52;100587.41;6311434;22;45505;-72
2023/06/10 04:30:31;;;;;;;;;7.25;7.25;;;;;24.01;52.39;100553.78;6340571;22;45326;-72
2023/06/10 04:33:11;;;;;;;;;7.50;7.50;;;;;24.01;52.45;100561.97;6340269;22;45290;-72
2023/06/10 04:35:42;;;;;;;;;7.25;7.25;;;;;23.90;52.81;100548.47;6339374;22;45528;-71
2023/06/10 04:38:10;;;;;;;;;8.75;7.50;;;;;24.14;52.50;100598.00;6310882;22;45316;-71
2023/06/10 04:40:52;;;;;;;;;7.75;7.75;;;;;24.05;52.38;100591.53;6340023;22;45276;-71
2023/06/10 04:43:24;;;;;;;;;7.00;6.00;;;;;24.07;52.31;100594.09;6340740;22;45230;-72
2023/06/10 04:45:59;;;;;;;;;9.25;6.75;;;;;24.07;52.65;100594.09;6340518;22;45474;-71
2023/06/10 04:48:24;;;;;;;;;8.75;7.00;;;;;24.01;52.64;100592.81;6339274;22;45413;-72
2023/06/10 04:50:56;;;;;;;;;7.00;7.00;;;;;23.82;53.19;100565.50;6339329;22;45400;-72
2023/06/10 04:53:24;;;;;;;;;6.25;6.25;;;;;23.84;52.86;100568.97;6339905;22;45339;-72
2023/06/10 04:55:52;;;;;;;;;8.25;7.00;;;;;24.06;53.18;100603.31;6311855;22;46849;-72
2023/06/10 04:58:22;;;;;;;;;8.00;7.25;;;;;23.88;52.99;100584.03;6340074;22;45189;-72
2023/06/10 05:01:02;;;;;;;;;;;;;;;;;;;;;
2023/06/10 05:03:31;;;;;;;;;7.00;7.00;;;;;23.99;53.06;100608.47;6339167;22;71935;-71
2023/06/10 05:05:56;;;;;;;;;9.50;8.50;;;;;23.94;53.24;100612.59;6340247;22;46010;-72
2023/06/10 05:08:41;;;;;;;;;7.25;6.25;;;;;23.79;53.07;100587.56;6339579;22;45802;-72
2023/06/10 05:11:09;;;;;;;;;7.00;6.00;;;;;23.94;53.30;100615.31;6340514;22;45245;-72
2023/06/10 05:13:45;;;;;;;;;6.75;6.25;;;;;23.88;53.16;100605.84;6339895;22;45381;-72
2023/06/10 05:16:10;;;;;;;;;6.50;6.00;;;;;23.78;53.75;100594.03;6339546;22;45605;-72
2023/06/10 05:18:48;;;;;;;;;;;;;;;;;;;;;
2023/06/10 05:21:17;;;;;;;;;7.50;7.25;;;;;23.81;53.63;100615.56;6339014;22;69239;-72
2023/06/10 05:23:45;;;;;;;;;8.25;7.00;;;;;23.61;53.63;100599.13;6339467;22;45451;-72
2023/06/10 05:26:15;;;;;;;;;7.00;7.00;;;;;23.60;53.96;100594.66;6340448;22;45492;-72
2023/06/10 05:28:41;;;;;;;;;8.50;8.00;;;;;23.80;53.98;100628.28;6339811;22;45306;-71
2023/06/10 05:31:07;;;;;;;;;7.25;7.00;;;;;23.55;54.01;100582.47;6340434;22;45254;-71
2023/06/10 05:33:36;;;;;;;;;7.00;7.00;;;;;23.61;54.02;100606.44;6339674;22;45557;-72
2023/06/10 05:36:07;;;;;;;;;9.25;7.75;;;;;23.65;54.13;100611.47;6311569;22;45459;-71
2023/06/10 05:38:40;;;;;;;;;7.00;7.00;;;;;23.47;53.95;100588.59;6311443;22;45251;-72
2023/06/10 05:41:08;;;;;;;;;7.25;6.50;;;;;23.42;54.21;100583.59;6339631;22;45279;-71
2023/06/10 05:43:39;;;;;;;;;9.75;8.75;;;;;23.70;54.38;100621.09;6339837;22;45452;-72
2023/06/10 05:46:16;;;;;;;;;8.50;6.00;;;;;23.61;54.11;100604.56;6340085;22;45662;-71
2023/06/10 05:48:44;;;;;;;;;6.50;6.50;;;;;23.59;54.32;100606.59;6338962;22;45197;-71
2023/06/10 05:51:12;;;;;;;;;9.25;7.00;;;;;23.56;54.56;100614.16;6339611;22;46567;-72
2023/06/10 05:53:47;;;;;;;;;7.50;7.50;;;;;23.64;54.43;100634.28;6339277;22;45187;-71
2023/06/10 05:56:23;;;;;;;;;9.75;8.00;;;;;23.43;54.59;100600.78;6339511;22;45712;-72
2023/06/10 05:58:51;;;;;;;;;6.50;6.50;;;;;23.56;55.04;100633.25;6339867;22;45390;-72
2023/06/10 06:01:16;;;;;;;;;9.75;8.50;;;;;23.56;54.78;100639.53;6339751;22;45234;-71
2023/06/10 06:03:46;;;;;;;;;8.00;8.00;;;;;23.35;55.18;100601.44;6339736;22;45250;-72
2023/06/10 06:06:35;;;;;;;;;6.50;6.50;;;;;23.58;54.76;100639.41;6339835;22;45340;-72
2023/06/10 06:09:02;;;;;;;;;7.00;7.00;;;;;23.38;55.06;100603.03;6340018;22;45639;-72
2023/06/10 06:11:32;;;;;;;;;7.00;7.00;;;;;23.46;55.67;100616.84;6340051;22;45308;-72
2023/06/10 06:13:58;;;;;;;;;11.00;10.00;;;;;23.60;55.15;100634.69;6311524;22;45279;-72
2023/06/10 06:16:33;;;;;;;;;3.50;3.50;;;;;23.65;55.30;100646.03;6339543;22;45759;-72
2023/06/10 06:19:04;;;;;;;;;7.25;7.25;;;;;23.62;55.26;100635.41;6338902;22;45442;-72
2023/06/10 06:21:37;;;;;;;;;7.25;7.25;;;;;23.60;55.22;100635.53;6311147;22;45333;-72
2023/06/10 06:26:51;;;;;;;;;7.00;5.00;;;;;23.44;55.76;100602.50;6339131;22;47327;-72
2023/06/10 06:29:20;;;;;;;;;7.25;7.25;;;;;23.67;55.89;100646.75;6338888;22;45389;-72
2023/06/10 06:31:45;;;;;;;;;6.25;5.25;;;;;23.43;55.72;100612.53;6339446;22;45306;-72
2023/06/10 06:34:23;;;;;;;;;;;;;;;;;;;;;
2023/06/10 06:36:54;;;;;;;;;7.25;6.25;;;;;23.47;55.57;100618.56;6338513;22;75432;-73
2023/06/10 06:39:28;;;;;;;;;7.75;7.75;;;;;23.71;56.13;100653.66;6339214;22;45217;-72
2023/06/10 06:41:54;;;;;;;;;8.00;7.25;;;;;23.53;56.42;100623.47;6311221;22;45378;-72
2023/06/10 06:44:19;;;;;;;;;9.50;8.50;;;;;23.75;56.04;100649.66;6310375;22;45228;-71
2023/06/10 06:46:45;;;;;;;;;10.50;8.00;;;;;23.56;56.01;100619.63;6337859;22;45282;-75
2023/06/10 06:49:12;;;;;;;;;8.00;6.00;;;;;23.49;56.25;100616.59;6339082;22;45507;-73
2023/06/10 06:51:38;;;;;;;;;6.00;6.00;;;;;23.73;56.68;100657.09;6339646;22;45389;-74
2023/06/10 06:54:13;;;;;;;;;7.00;7.00;;;;;23.80;56.45;100660.16;6309911;22;45447;-74
2023/06/10 06:56:40;;;;;;;;;8.50;6.50;;;;;23.47;56.42;100599.50;6339140;22;45909;-73
2023/06/10 06:59:08;;;;;;;;;8.25;8.25;;;;;23.81;56.85;100670.06;6338845;22;45491;-73
2023/06/10 08:41:54;;;;;;;;;;;;;;;;;;;;;
2023/06/10 09:19:46;;;;;;;;;5.00;5.00;;;;;26.01;54.50;100717.84;6307393;22;45415;-68
2023/06/10 09:56:15;;;;;;;;;;;;;;;;;;;;;
2023/06/10 09:59:36;;;;;;;;;;;;;;;;;;;;;
2023/06/10 10:35:47;;;;;;;;;;;;;;;;;;;;;
2023/06/10 10:38:34;;;;;;;;;;;;;;;;;;;;;
2023/06/10 12:53:59;;;;;;;;;7.25;7.25;;;;;28.24;46.28;100661.16;6329474;22;45572;-70
